sensor_id;sensor_type;location;lat;lon;timestamp;P1;durP1;ratioP1;P2;durP2;ratioP2
72904;SDS011;61048;52.162;4.516;2023-11-21T00:00:00;4.80;;;1.45;;
72904;SDS011;61048;52.162;4.516;2023-11-21T00:02:27;4.78;;;1.92;;
72904;SDS011;61048;52.162;4.516;2023-11-21T00:04:55;7.15;;;1.67;;
72904;SDS011;61048;52.162;4.516;2023-11-21T00:07:22;4.78;;;1.88;;
72904;SDS011;61048;52.162;4.516;2023-11-21T00:09:49;2.90;;;1.10;;
72904;SDS011;61048;52.162;4.516;2023-11-21T00:12:16;3.50;;;1.40;;
72904;SDS011;61048;52.162;4.516;2023-11-21T00:14:43;6.18;;;1.80;;
72904;SDS011;61048;52.162;4.516;2023-11-21T00:17:10;3.22;;;1.20;;
72904;SDS011;61048;52.162;4.516;2023-11-21T00:19:37;3.13;;;1.00;;
72904;SDS011;61048;52.162;4.516;2023-11-21T00:22:05;5.15;;;1.33;;
72904;SDS011;61048;52.162;4.516;2023-11-21T00:24:32;3.92;;;1.20;;
72904;SDS011;61048;52.162;4.516;2023-11-21T00:26:59;3.47;;;1.27;;
72904;SDS011;61048;52.162;4.516;2023-11-21T00:29:26;3.25;;;1.20;;
72904;SDS011;61048;52.162;4.516;2023-11-21T00:31:53;3.05;;;1.20;;
72904;SDS011;61048;52.162;4.516;2023-11-21T00:34:19;2.67;;;1.70;;
72904;SDS011;61048;52.162;4.516;2023-11-21T00:36:46;2.50;;;0.95;;
72904;SDS011;61048;52.162;4.516;2023-11-21T00:39:15;4.15;;;1.20;;
72904;SDS011;61048;52.162;4.516;2023-11-21T00:41:41;3.45;;;1.25;;
72904;SDS011;61048;52.162;4.516;2023-11-21T00:44:09;4.10;;;1.10;;
72904;SDS011;61048;52.162;4.516;2023-11-21T00:46:36;4.25;;;1.48;;
72904;SDS011;61048;52.162;4.516;2023-11-21T00:49:03;3.05;;;1.17;;
72904;SDS011;61048;52.162;4.516;2023-11-21T00:51:30;4.35;;;1.23;;
72904;SDS011;61048;52.162;4.516;2023-11-21T00:53:58;2.75;;;1.05;;
72904;SDS011;61048;52.162;4.516;2023-11-21T00:56:26;3.85;;;1.25;;
72904;SDS011;61048;52.162;4.516;2023-11-21T00:58:53;3.00;;;1.10;;
72904;SDS011;61048;52.162;4.516;2023-11-21T01:01:20;4.15;;;1.10;;
72904;SDS011;61048;52.162;4.516;2023-11-21T01:03:48;3.60;;;1.23;;
72904;SDS011;61048;52.162;4.516;2023-11-21T01:06:15;3.47;;;1.13;;
72904;SDS011;61048;52.162;4.516;2023-11-21T01:08:43;2.83;;;1.05;;
72904;SDS011;61048;52.162;4.516;2023-11-21T01:11:10;3.97;;;1.00;;
72904;SDS011;61048;52.162;4.516;2023-11-21T01:13:39;2.55;;;0.98;;
72904;SDS011;61048;52.162;4.516;2023-11-21T01:16:06;2.88;;;1.13;;
72904;SDS011;61048;52.162;4.516;2023-11-21T01:18:34;3.50;;;1.00;;
72904;SDS011;61048;52.162;4.516;2023-11-21T01:21:02;3.03;;;1.10;;
72904;SDS011;61048;52.162;4.516;2023-11-21T01:23:29;2.40;;;1.00;;
72904;SDS011;61048;52.162;4.516;2023-11-21T01:25:56;4.00;;;1.20;;
72904;SDS011;61048;52.162;4.516;2023-11-21T01:28:23;3.45;;;1.33;;
72904;SDS011;61048;52.162;4.516;2023-11-21T01:30:52;2.38;;;0.90;;
72904;SDS011;61048;52.162;4.516;2023-11-21T01:33:21;3.03;;;1.25;;
72904;SDS011;61048;52.162;4.516;2023-11-21T01:35:50;2.05;;;0.90;;
72904;SDS011;61048;52.162;4.516;2023-11-21T01:38:20;2.72;;;0.98;;
72904;SDS011;61048;52.162;4.516;2023-11-21T01:40:47;3.47;;;1.02;;
72904;SDS011;61048;52.162;4.516;2023-11-21T01:43:14;3.65;;;1.20;;
72904;SDS011;61048;52.162;4.516;2023-11-21T01:45:41;5.38;;;1.13;;
72904;SDS011;61048;52.162;4.516;2023-11-21T01:48:11;2.75;;;0.93;;
72904;SDS011;61048;52.162;4.516;2023-11-21T01:50:41;3.55;;;0.82;;
72904;SDS011;61048;52.162;4.516;2023-11-21T01:53:10;2.33;;;0.85;;
72904;SDS011;61048;52.162;4.516;2023-11-21T01:55:39;3.92;;;1.10;;
72904;SDS011;61048;52.162;4.516;2023-11-21T01:58:07;2.72;;;1.30;;
72904;SDS011;61048;52.162;4.516;2023-11-21T02:00:35;2.17;;;0.95;;
72904;SDS011;61048;52.162;4.516;2023-11-21T02:03:03;2.75;;;0.82;;
72904;SDS011;61048;52.162;4.516;2023-11-21T02:05:33;2.25;;;0.88;;
72904;SDS011;61048;52.162;4.516;2023-11-21T02:08:01;2.10;;;0.95;;
72904;SDS011;61048;52.162;4.516;2023-11-21T02:10:30;1.77;;;0.68;;
72904;SDS011;61048;52.162;4.516;2023-11-21T02:12:57;3.08;;;0.90;;
72904;SDS011;61048;52.162;4.516;2023-11-21T02:15:26;3.00;;;0.88;;
72904;SDS011;61048;52.162;4.516;2023-11-21T02:17:54;2.60;;;1.02;;
72904;SDS011;61048;52.162;4.516;2023-11-21T02:20:23;3.33;;;1.00;;
72904;SDS011;61048;52.162;4.516;2023-11-21T02:22:53;2.63;;;0.70;;
72904;SDS011;61048;52.162;4.516;2023-11-21T02:25:23;2.35;;;0.80;;
72904;SDS011;61048;52.162;4.516;2023-11-21T02:27:50;3.13;;;0.75;;
72904;SDS011;61048;52.162;4.516;2023-11-21T02:30:17;2.15;;;0.75;;
72904;SDS011;61048;52.162;4.516;2023-11-21T02:32:43;2.28;;;0.80;;
72904;SDS011;61048;52.162;4.516;2023-11-21T02:35:11;2.30;;;0.73;;
72904;SDS011;61048;52.162;4.516;2023-11-21T02:37:38;2.35;;;0.73;;
72904;SDS011;61048;52.162;4.516;2023-11-21T02:40:08;2.15;;;0.85;;
72904;SDS011;61048;52.162;4.516;2023-11-21T02:42:37;2.28;;;0.80;;
72904;SDS011;61048;52.162;4.516;2023-11-21T02:45:05;3.08;;;0.85;;
72904;SDS011;61048;52.162;4.516;2023-11-21T02:47:32;2.75;;;0.88;;
72904;SDS011;61048;52.162;4.516;2023-11-21T02:49:59;2.03;;;0.70;;
72904;SDS011;61048;52.162;4.516;2023-11-21T02:52:26;3.35;;;0.93;;
72904;SDS011;61048;52.162;4.516;2023-11-21T02:54:53;1.95;;;0.80;;
72904;SDS011;61048;52.162;4.516;2023-11-21T02:57:21;2.03;;;0.70;;
72904;SDS011;61048;52.162;4.516;2023-11-21T02:59:48;1.83;;;0.70;;
72904;SDS011;61048;52.162;4.516;2023-11-21T03:02:15;1.92;;;0.68;;
72904;SDS011;61048;52.162;4.516;2023-11-21T03:04:42;2.35;;;0.95;;
72904;SDS011;61048;52.162;4.516;2023-11-21T03:07:09;2.83;;;0.82;;
72904;SDS011;61048;52.162;4.516;2023-11-21T03:09:36;2.05;;;0.70;;
72904;SDS011;61048;52.162;4.516;2023-11-21T03:12:04;2.25;;;0.70;;
72904;SDS011;61048;52.162;4.516;2023-11-21T03:14:33;2.72;;;0.88;;
72904;SDS011;61048;52.162;4.516;2023-11-21T03:17:00;2.28;;;0.60;;
72904;SDS011;61048;52.162;4.516;2023-11-21T03:19:26;3.33;;;1.02;;
72904;SDS011;61048;52.162;4.516;2023-11-21T03:21:53;1.95;;;1.02;;
72904;SDS011;61048;52.162;4.516;2023-11-21T03:24:20;2.58;;;0.70;;
72904;SDS011;61048;52.162;4.516;2023-11-21T03:26:47;2.30;;;0.55;;
72904;SDS011;61048;52.162;4.516;2023-11-21T03:29:15;1.40;;;0.52;;
72904;SDS011;61048;52.162;4.516;2023-11-21T03:31:43;1.90;;;0.60;;
72904;SDS011;61048;52.162;4.516;2023-11-21T03:34:14;1.63;;;0.57;;
72904;SDS011;61048;52.162;4.516;2023-11-21T03:36:42;3.08;;;0.50;;
72904;SDS011;61048;52.162;4.516;2023-11-21T03:39:11;1.67;;;0.68;;
72904;SDS011;61048;52.162;4.516;2023-11-21T03:41:38;2.33;;;0.50;;
72904;SDS011;61048;52.162;4.516;2023-11-21T03:44:05;2.72;;;0.50;;
72904;SDS011;61048;52.162;4.516;2023-11-21T03:46:32;2.22;;;0.77;;
72904;SDS011;61048;52.162;4.516;2023-11-21T03:49:00;1.33;;;0.50;;
72904;SDS011;61048;52.162;4.516;2023-11-21T03:51:27;3.38;;;0.73;;
72904;SDS011;61048;52.162;4.516;2023-11-21T03:53:54;1.55;;;0.60;;
72904;SDS011;61048;52.162;4.516;2023-11-21T03:56:20;1.70;;;0.82;;
72904;SDS011;61048;52.162;4.516;2023-11-21T03:58:47;2.08;;;0.73;;
72904;SDS011;61048;52.162;4.516;2023-11-21T04:01:18;2.28;;;1.00;;
72904;SDS011;61048;52.162;4.516;2023-11-21T04:03:47;2.17;;;0.40;;
72904;SDS011;61048;52.162;4.516;2023-11-21T04:06:16;1.52;;;0.30;;
72904;SDS011;61048;52.162;4.516;2023-11-21T04:08:43;1.73;;;0.60;;
72904;SDS011;61048;52.162;4.516;2023-11-21T04:11:10;2.17;;;0.50;;
72904;SDS011;61048;52.162;4.516;2023-11-21T04:13:38;1.63;;;0.50;;
72904;SDS011;61048;52.162;4.516;2023-11-21T04:16:05;2.20;;;0.85;;
72904;SDS011;61048;52.162;4.516;2023-11-21T04:18:33;1.45;;;0.40;;
72904;SDS011;61048;52.162;4.516;2023-11-21T04:21:00;1.40;;;0.40;;
72904;SDS011;61048;52.162;4.516;2023-11-21T04:23:29;1.92;;;0.82;;
72904;SDS011;61048;52.162;4.516;2023-11-21T04:25:56;2.90;;;0.50;;
72904;SDS011;61048;52.162;4.516;2023-11-21T04:28:23;2.55;;;0.82;;
72904;SDS011;61048;52.162;4.516;2023-11-21T04:30:50;1.35;;;0.43;;
72904;SDS011;61048;52.162;4.516;2023-11-21T04:33:17;2.90;;;0.63;;
72904;SDS011;61048;52.162;4.516;2023-11-21T04:35:44;1.60;;;0.30;;
72904;SDS011;61048;52.162;4.516;2023-11-21T04:38:11;2.00;;;0.60;;
72904;SDS011;61048;52.162;4.516;2023-11-21T04:40:39;1.45;;;0.40;;
72904;SDS011;61048;52.162;4.516;2023-11-21T04:43:06;1.65;;;0.60;;
72904;SDS011;61048;52.162;4.516;2023-11-21T04:45:33;1.85;;;0.40;;
72904;SDS011;61048;52.162;4.516;2023-11-21T04:48:00;1.80;;;0.75;;
72904;SDS011;61048;52.162;4.516;2023-11-21T04:50:27;1.08;;;0.32;;
72904;SDS011;61048;52.162;4.516;2023-11-21T04:52:54;1.77;;;0.60;;
72904;SDS011;61048;52.162;4.516;2023-11-21T04:55:21;1.13;;;0.45;;
72904;SDS011;61048;52.162;4.516;2023-11-21T04:57:49;1.33;;;0.50;;
72904;SDS011;61048;52.162;4.516;2023-11-21T05:00:16;1.48;;;0.52;;
72904;SDS011;61048;52.162;4.516;2023-11-21T05:02:43;1.70;;;0.57;;
72904;SDS011;61048;52.162;4.516;2023-11-21T05:05:10;3.88;;;0.60;;
72904;SDS011;61048;52.162;4.516;2023-11-21T05:07:38;1.65;;;0.50;;
72904;SDS011;61048;52.162;4.516;2023-11-21T05:10:05;1.92;;;0.75;;
72904;SDS011;61048;52.162;4.516;2023-11-21T05:12:34;1.30;;;0.40;;
72904;SDS011;61048;52.162;4.516;2023-11-21T05:15:04;1.02;;;0.30;;
72904;SDS011;61048;52.162;4.516;2023-11-21T05:17:34;1.80;;;0.40;;
72904;SDS011;61048;52.162;4.516;2023-11-21T05:20:02;2.25;;;0.63;;
72904;SDS011;61048;52.162;4.516;2023-11-21T05:22:34;0.90;;;0.35;;
72904;SDS011;61048;52.162;4.516;2023-11-21T05:25:01;1.63;;;0.57;;
72904;SDS011;61048;52.162;4.516;2023-11-21T05:27:29;1.25;;;0.45;;
72904;SDS011;61048;52.162;4.516;2023-11-21T05:29:56;1.00;;;0.30;;
72904;SDS011;61048;52.162;4.516;2023-11-21T05:32:25;1.00;;;0.30;;
72904;SDS011;61048;52.162;4.516;2023-11-21T05:34:52;1.00;;;0.40;;
72904;SDS011;61048;52.162;4.516;2023-11-21T05:37:19;1.77;;;0.38;;
72904;SDS011;61048;52.162;4.516;2023-11-21T05:39:46;1.05;;;0.30;;
72904;SDS011;61048;52.162;4.516;2023-11-21T05:42:13;3.97;;;0.43;;
72904;SDS011;61048;52.162;4.516;2023-11-21T05:44:41;2.05;;;0.50;;
72904;SDS011;61048;52.162;4.516;2023-11-21T05:47:09;1.52;;;0.40;;
72904;SDS011;61048;52.162;4.516;2023-11-21T05:49:37;1.27;;;0.32;;
72904;SDS011;61048;52.162;4.516;2023-11-21T05:52:04;1.75;;;0.50;;
72904;SDS011;61048;52.162;4.516;2023-11-21T05:54:31;36.53;;;8.18;;
72904;SDS011;61048;52.162;4.516;2023-11-21T05:56:59;60.33;;;12.20;;
72904;SDS011;61048;52.162;4.516;2023-11-21T05:59:26;57.05;;;13.07;;
72904;SDS011;61048;52.162;4.516;2023-11-21T06:01:53;51.67;;;13.02;;
72904;SDS011;61048;52.162;4.516;2023-11-21T06:04:20;60.83;;;12.25;;
72904;SDS011;61048;52.162;4.516;2023-11-21T06:06:51;55.42;;;11.85;;
72904;SDS011;61048;52.162;4.516;2023-11-21T06:09:19;53.28;;;12.02;;
72904;SDS011;61048;52.162;4.516;2023-11-21T06:11:46;43.58;;;11.48;;
72904;SDS011;61048;52.162;4.516;2023-11-21T06:14:13;48.45;;;13.20;;
72904;SDS011;61048;52.162;4.516;2023-11-21T06:16:43;42.15;;;11.30;;
72904;SDS011;61048;52.162;4.516;2023-11-21T06:19:10;48.08;;;11.55;;
72904;SDS011;61048;52.162;4.516;2023-11-21T06:21:37;42.25;;;9.77;;
72904;SDS011;61048;52.162;4.516;2023-11-21T06:24:06;44.78;;;11.15;;
72904;SDS011;61048;52.162;4.516;2023-11-21T06:26:36;40.42;;;9.52;;
72904;SDS011;61048;52.162;4.516;2023-11-21T06:29:03;45.85;;;10.25;;
72904;SDS011;61048;52.162;4.516;2023-11-21T06:31:32;41.03;;;9.73;;
72904;SDS011;61048;52.162;4.516;2023-11-21T06:34:00;33.10;;;9.07;;
72904;SDS011;61048;52.162;4.516;2023-11-21T06:36:28;37.60;;;9.88;;
72904;SDS011;61048;52.162;4.516;2023-11-21T06:38:55;35.78;;;9.18;;
72904;SDS011;61048;52.162;4.516;2023-11-21T06:41:24;31.60;;;7.65;;
72904;SDS011;61048;52.162;4.516;2023-11-21T06:43:50;35.10;;;8.68;;
72904;SDS011;61048;52.162;4.516;2023-11-21T06:46:18;31.27;;;8.10;;
72904;SDS011;61048;52.162;4.516;2023-11-21T06:48:45;24.30;;;6.47;;
72904;SDS011;61048;52.162;4.516;2023-11-21T06:51:12;25.42;;;6.70;;
72904;SDS011;61048;52.162;4.516;2023-11-21T06:53:39;20.50;;;5.53;;
72904;SDS011;61048;52.162;4.516;2023-11-21T06:56:14;24.63;;;6.10;;
72904;SDS011;61048;52.162;4.516;2023-11-21T06:58:43;23.20;;;5.47;;
72904;SDS011;61048;52.162;4.516;2023-11-21T07:01:11;19.30;;;5.72;;
72904;SDS011;61048;52.162;4.516;2023-11-21T07:03:38;22.02;;;5.07;;
72904;SDS011;61048;52.162;4.516;2023-11-21T07:06:06;19.95;;;5.30;;
72904;SDS011;61048;52.162;4.516;2023-11-21T07:08:33;19.08;;;4.85;;
72904;SDS011;61048;52.162;4.516;2023-11-21T07:11:00;18.83;;;4.80;;
72904;SDS011;61048;52.162;4.516;2023-11-21T07:13:28;22.48;;;5.13;;
72904;SDS011;61048;52.162;4.516;2023-11-21T07:15:57;21.45;;;4.35;;
72904;SDS011;61048;52.162;4.516;2023-11-21T07:18:24;14.25;;;3.85;;
72904;SDS011;61048;52.162;4.516;2023-11-21T07:20:51;11.18;;;3.17;;
72904;SDS011;61048;52.162;4.516;2023-11-21T07:23:18;10.60;;;2.92;;
72904;SDS011;61048;52.162;4.516;2023-11-21T07:25:45;15.88;;;3.10;;
72904;SDS011;61048;52.162;4.516;2023-11-21T07:28:12;13.60;;;3.17;;
72904;SDS011;61048;52.162;4.516;2023-11-21T07:30:39;10.35;;;2.53;;
72904;SDS011;61048;52.162;4.516;2023-11-21T07:33:07;12.35;;;2.22;;
72904;SDS011;61048;52.162;4.516;2023-11-21T07:35:34;7.07;;;1.90;;
72904;SDS011;61048;52.162;4.516;2023-11-21T07:38:01;8.43;;;2.35;;
72904;SDS011;61048;52.162;4.516;2023-11-21T07:40:28;10.82;;;1.85;;
72904;SDS011;61048;52.162;4.516;2023-11-21T07:42:55;7.80;;;1.90;;
72904;SDS011;61048;52.162;4.516;2023-11-21T07:45:22;8.10;;;1.42;;
72904;SDS011;61048;52.162;4.516;2023-11-21T07:47:52;7.80;;;1.42;;
72904;SDS011;61048;52.162;4.516;2023-11-21T07:50:21;7.25;;;1.30;;
72904;SDS011;61048;52.162;4.516;2023-11-21T07:52:48;5.07;;;1.02;;
72904;SDS011;61048;52.162;4.516;2023-11-21T07:55:15;5.25;;;1.52;;
72904;SDS011;61048;52.162;4.516;2023-11-21T07:57:42;8.48;;;1.63;;
72904;SDS011;61048;52.162;4.516;2023-11-21T08:00:10;6.45;;;1.20;;
72904;SDS011;61048;52.162;4.516;2023-11-21T08:02:37;3.30;;;1.08;;
72904;SDS011;61048;52.162;4.516;2023-11-21T08:05:07;3.67;;;1.10;;
72904;SDS011;61048;52.162;4.516;2023-11-21T08:07:37;5.68;;;1.98;;
72904;SDS011;61048;52.162;4.516;2023-11-21T08:10:04;4.70;;;1.13;;
72904;SDS011;61048;52.162;4.516;2023-11-21T08:12:35;3.92;;;1.08;;
72904;SDS011;61048;52.162;4.516;2023-11-21T08:15:02;4.45;;;0.90;;
72904;SDS011;61048;52.162;4.516;2023-11-21T08:17:30;5.97;;;1.13;;
72904;SDS011;61048;52.162;4.516;2023-11-21T08:19:58;3.22;;;0.85;;
72904;SDS011;61048;52.162;4.516;2023-11-21T08:22:24;2.63;;;1.20;;
72904;SDS011;61048;52.162;4.516;2023-11-21T08:24:53;5.32;;;1.13;;
72904;SDS011;61048;52.162;4.516;2023-11-21T08:27:21;3.72;;;1.35;;
72904;SDS011;61048;52.162;4.516;2023-11-21T08:29:48;3.05;;;0.80;;
72904;SDS011;61048;52.162;4.516;2023-11-21T08:32:15;6.32;;;0.93;;
72904;SDS011;61048;52.162;4.516;2023-11-21T08:34:42;3.83;;;0.90;;
72904;SDS011;61048;52.162;4.516;2023-11-21T08:37:10;2.83;;;0.80;;
72904;SDS011;61048;52.162;4.516;2023-11-21T08:39:37;3.15;;;0.63;;
72904;SDS011;61048;52.162;4.516;2023-11-21T08:42:05;3.40;;;1.00;;
72904;SDS011;61048;52.162;4.516;2023-11-21T08:44:36;1.88;;;0.73;;
72904;SDS011;61048;52.162;4.516;2023-11-21T08:47:03;4.28;;;0.85;;
72904;SDS011;61048;52.162;4.516;2023-11-21T08:49:30;4.47;;;1.35;;
72904;SDS011;61048;52.162;4.516;2023-11-21T08:51:57;3.35;;;1.08;;
72904;SDS011;61048;52.162;4.516;2023-11-21T08:54:24;3.25;;;0.70;;
72904;SDS011;61048;52.162;4.516;2023-11-21T08:56:51;3.50;;;0.85;;
72904;SDS011;61048;52.162;4.516;2023-11-21T08:59:21;4.22;;;0.60;;
72904;SDS011;61048;52.162;4.516;2023-11-21T09:01:48;2.83;;;0.68;;
72904;SDS011;61048;52.162;4.516;2023-11-21T09:04:15;1.98;;;0.45;;
72904;SDS011;61048;52.162;4.516;2023-11-21T09:06:42;1.50;;;0.60;;
72904;SDS011;61048;52.162;4.516;2023-11-21T09:09:10;3.92;;;0.80;;
72904;SDS011;61048;52.162;4.516;2023-11-21T09:11:36;3.55;;;1.00;;
72904;SDS011;61048;52.162;4.516;2023-11-21T09:14:04;3.20;;;0.73;;
72904;SDS011;61048;52.162;4.516;2023-11-21T09:16:32;3.85;;;0.98;;
72904;SDS011;61048;52.162;4.516;2023-11-21T09:18:59;3.17;;;0.85;;
72904;SDS011;61048;52.162;4.516;2023-11-21T09:21:26;3.05;;;0.93;;
72904;SDS011;61048;52.162;4.516;2023-11-21T09:23:53;2.70;;;1.17;;
72904;SDS011;61048;52.162;4.516;2023-11-21T09:26:20;3.90;;;1.10;;
72904;SDS011;61048;52.162;4.516;2023-11-21T09:28:47;2.47;;;1.15;;
72904;SDS011;61048;52.162;4.516;2023-11-21T09:31:14;3.20;;;1.23;;
72904;SDS011;61048;52.162;4.516;2023-11-21T09:33:43;2.50;;;1.23;;
72904;SDS011;61048;52.162;4.516;2023-11-21T09:36:11;5.35;;;1.25;;
72904;SDS011;61048;52.162;4.516;2023-11-21T09:38:39;3.58;;;1.30;;
72904;SDS011;61048;52.162;4.516;2023-11-21T09:41:08;3.50;;;1.25;;
72904;SDS011;61048;52.162;4.516;2023-11-21T09:43:42;2.08;;;1.00;;
72904;SDS011;61048;52.162;4.516;2023-11-21T09:46:12;3.28;;;1.27;;
72904;SDS011;61048;52.162;4.516;2023-11-21T09:48:46;4.00;;;1.10;;
72904;SDS011;61048;52.162;4.516;2023-11-21T09:51:15;2.55;;;1.10;;
72904;SDS011;61048;52.162;4.516;2023-11-21T09:53:46;3.58;;;1.08;;
72904;SDS011;61048;52.162;4.516;2023-11-21T09:56:17;2.90;;;1.02;;
72904;SDS011;61048;52.162;4.516;2023-11-21T09:58:50;3.35;;;1.27;;
72904;SDS011;61048;52.162;4.516;2023-11-21T10:01:18;2.75;;;1.17;;
72904;SDS011;61048;52.162;4.516;2023-11-21T10:03:48;3.33;;;1.48;;
72904;SDS011;61048;52.162;4.516;2023-11-21T10:06:15;2.35;;;0.93;;
72904;SDS011;61048;52.162;4.516;2023-11-21T10:08:44;4.50;;;1.55;;
72904;SDS011;61048;52.162;4.516;2023-11-21T10:11:10;2.40;;;1.00;;
72904;SDS011;61048;52.162;4.516;2023-11-21T10:13:39;2.65;;;1.10;;
72904;SDS011;61048;52.162;4.516;2023-11-21T10:16:07;2.38;;;1.23;;
72904;SDS011;61048;52.162;4.516;2023-11-21T10:18:38;3.30;;;1.27;;
72904;SDS011;61048;52.162;4.516;2023-11-21T10:21:07;2.88;;;1.23;;
72904;SDS011;61048;52.162;4.516;2023-11-21T10:23:35;3.03;;;1.08;;
72904;SDS011;61048;52.162;4.516;2023-11-21T10:26:02;4.53;;;1.05;;
72904;SDS011;61048;52.162;4.516;2023-11-21T10:28:30;3.00;;;1.05;;
72904;SDS011;61048;52.162;4.516;2023-11-21T10:31:02;3.00;;;1.38;;
72904;SDS011;61048;52.162;4.516;2023-11-21T10:33:30;2.25;;;0.95;;
72904;SDS011;61048;52.162;4.516;2023-11-21T10:35:57;5.63;;;1.20;;
72904;SDS011;61048;52.162;4.516;2023-11-21T10:38:27;2.97;;;1.10;;
72904;SDS011;61048;52.162;4.516;2023-11-21T10:41:02;2.65;;;1.23;;
72904;SDS011;61048;52.162;4.516;2023-11-21T10:43:32;3.40;;;1.15;;
72904;SDS011;61048;52.162;4.516;2023-11-21T10:45:59;3.38;;;1.40;;
72904;SDS011;61048;52.162;4.516;2023-11-21T10:48:26;2.67;;;1.08;;
72904;SDS011;61048;52.162;4.516;2023-11-21T10:50:53;5.38;;;1.60;;
72904;SDS011;61048;52.162;4.516;2023-11-21T10:53:21;4.93;;;1.33;;
72904;SDS011;61048;52.162;4.516;2023-11-21T10:55:50;5.32;;;1.90;;
72904;SDS011;61048;52.162;4.516;2023-11-21T10:58:27;3.33;;;1.40;;
72904;SDS011;61048;52.162;4.516;2023-11-21T11:00:54;4.85;;;1.52;;
72904;SDS011;61048;52.162;4.516;2023-11-21T11:03:23;4.25;;;1.63;;
72904;SDS011;61048;52.162;4.516;2023-11-21T11:05:50;4.25;;;1.60;;
72904;SDS011;61048;52.162;4.516;2023-11-21T11:08:20;3.53;;;1.35;;
72904;SDS011;61048;52.162;4.516;2023-11-21T11:10:53;3.92;;;1.80;;
72904;SDS011;61048;52.162;4.516;2023-11-21T11:13:20;4.78;;;1.73;;
72904;SDS011;61048;52.162;4.516;2023-11-21T11:15:48;3.90;;;1.83;;
72904;SDS011;61048;52.162;4.516;2023-11-21T11:18:15;5.10;;;2.40;;
72904;SDS011;61048;52.162;4.516;2023-11-21T11:20:43;4.43;;;2.30;;
72904;SDS011;61048;52.162;4.516;2023-11-21T11:23:14;4.65;;;2.17;;
72904;SDS011;61048;52.162;4.516;2023-11-21T11:26:11;5.00;;;1.85;;
72904;SDS011;61048;52.162;4.516;2023-11-21T11:28:47;4.10;;;1.73;;
72904;SDS011;61048;52.162;4.516;2023-11-21T11:31:23;4.47;;;2.35;;
72904;SDS011;61048;52.162;4.516;2023-11-21T11:33:58;5.65;;;2.08;;
72904;SDS011;61048;52.162;4.516;2023-11-21T11:36:34;5.40;;;2.28;;
72904;SDS011;61048;52.162;4.516;2023-11-21T11:39:04;4.50;;;1.98;;
72904;SDS011;61048;52.162;4.516;2023-11-21T11:41:55;4.28;;;2.35;;
72904;SDS011;61048;52.162;4.516;2023-11-21T11:44:46;4.30;;;2.00;;
72904;SDS011;61048;52.162;4.516;2023-11-21T11:47:16;5.35;;;2.60;;
72904;SDS011;61048;52.162;4.516;2023-11-21T11:49:56;3.85;;;1.95;;
72904;SDS011;61048;52.162;4.516;2023-11-21T11:52:37;4.05;;;2.30;;
72904;SDS011;61048;52.162;4.516;2023-11-21T11:55:06;3.95;;;2.10;;
72904;SDS011;61048;52.162;4.516;2023-11-21T11:57:40;4.00;;;2.00;;
72904;SDS011;61048;52.162;4.516;2023-11-21T12:00:08;4.28;;;2.13;;
72904;SDS011;61048;52.162;4.516;2023-11-21T12:02:46;3.40;;;1.48;;
72904;SDS011;61048;52.162;4.516;2023-11-21T12:05:14;4.28;;;1.95;;
72904;SDS011;61048;52.162;4.516;2023-11-21T12:07:43;4.63;;;2.15;;
72904;SDS011;61048;52.162;4.516;2023-11-21T12:10:13;3.38;;;1.80;;
72904;SDS011;61048;52.162;4.516;2023-11-21T12:12:44;4.70;;;2.13;;
72904;SDS011;61048;52.162;4.516;2023-11-21T12:15:12;5.25;;;1.98;;
72904;SDS011;61048;52.162;4.516;2023-11-21T12:17:41;4.35;;;1.90;;
72904;SDS011;61048;52.162;4.516;2023-11-21T12:20:09;4.45;;;2.10;;
72904;SDS011;61048;52.162;4.516;2023-11-21T12:22:43;4.07;;;2.05;;
72904;SDS011;61048;52.162;4.516;2023-11-21T12:25:12;5.53;;;2.20;;
72904;SDS011;61048;52.162;4.516;2023-11-21T12:27:41;4.75;;;1.90;;
72904;SDS011;61048;52.162;4.516;2023-11-21T12:30:12;4.85;;;2.40;;
72904;SDS011;61048;52.162;4.516;2023-11-21T12:32:40;4.38;;;2.13;;
72904;SDS011;61048;52.162;4.516;2023-11-21T12:35:08;4.95;;;1.85;;
72904;SDS011;61048;52.162;4.516;2023-11-21T12:37:35;4.30;;;1.90;;
72904;SDS011;61048;52.162;4.516;2023-11-21T12:40:03;3.88;;;1.50;;
72904;SDS011;61048;52.162;4.516;2023-11-21T12:42:32;4.57;;;2.33;;
72904;SDS011;61048;52.162;4.516;2023-11-21T12:47:54;3.55;;;1.80;;
72904;SDS011;61048;52.162;4.516;2023-11-21T12:50:25;4.07;;;1.80;;
72904;SDS011;61048;52.162;4.516;2023-11-21T12:52:54;3.90;;;1.80;;
72904;SDS011;61048;52.162;4.516;2023-11-21T12:55:24;4.50;;;2.20;;
72904;SDS011;61048;52.162;4.516;2023-11-21T12:57:52;4.18;;;2.50;;
72904;SDS011;61048;52.162;4.516;2023-11-21T13:00:26;4.32;;;1.77;;
72904;SDS011;61048;52.162;4.516;2023-11-21T13:02:58;5.55;;;2.47;;
72904;SDS011;61048;52.162;4.516;2023-11-21T13:05:29;4.75;;;2.22;;
72904;SDS011;61048;52.162;4.516;2023-11-21T13:07:57;4.82;;;2.22;;
72904;SDS011;61048;52.162;4.516;2023-11-21T13:10:28;3.92;;;1.80;;
72904;SDS011;61048;52.162;4.516;2023-11-21T13:12:56;3.35;;;1.88;;
72904;SDS011;61048;52.162;4.516;2023-11-21T13:15:25;5.38;;;1.77;;
72904;SDS011;61048;52.162;4.516;2023-11-21T13:17:53;5.43;;;2.00;;
72904;SDS011;61048;52.162;4.516;2023-11-21T13:20:22;3.75;;;1.65;;
72904;SDS011;61048;52.162;4.516;2023-11-21T13:22:50;4.78;;;1.40;;
72904;SDS011;61048;52.162;4.516;2023-11-21T13:25:19;3.38;;;1.88;;
72904;SDS011;61048;52.162;4.516;2023-11-21T13:27:47;3.67;;;1.55;;
72904;SDS011;61048;52.162;4.516;2023-11-21T13:30:14;3.20;;;1.65;;
72904;SDS011;61048;52.162;4.516;2023-11-21T13:32:42;3.90;;;1.48;;
72904;SDS011;61048;52.162;4.516;2023-11-21T13:35:12;3.80;;;1.67;;
72904;SDS011;61048;52.162;4.516;2023-11-21T13:37:48;3.60;;;1.50;;
72904;SDS011;61048;52.162;4.516;2023-11-21T13:40:21;3.63;;;1.48;;
72904;SDS011;61048;52.162;4.516;2023-11-21T13:42:51;4.97;;;1.95;;
72904;SDS011;61048;52.162;4.516;2023-11-21T13:45:24;5.30;;;1.73;;
72904;SDS011;61048;52.162;4.516;2023-11-21T13:47:52;4.18;;;1.65;;
72904;SDS011;61048;52.162;4.516;2023-11-21T13:50:25;4.40;;;2.08;;
72904;SDS011;61048;52.162;4.516;2023-11-21T13:52:58;4.18;;;1.90;;
72904;SDS011;61048;52.162;4.516;2023-11-21T13:55:28;4.88;;;2.03;;
72904;SDS011;61048;52.162;4.516;2023-11-21T13:57:55;3.70;;;2.00;;
72904;SDS011;61048;52.162;4.516;2023-11-21T14:00:22;3.35;;;1.77;;
72904;SDS011;61048;52.162;4.516;2023-11-21T14:05:42;4.45;;;2.28;;
72904;SDS011;61048;52.162;4.516;2023-11-21T14:08:11;4.80;;;3.40;;
72904;SDS011;61048;52.162;4.516;2023-11-21T14:10:41;5.07;;;2.70;;
72904;SDS011;61048;52.162;4.516;2023-11-21T14:13:09;4.38;;;2.58;;
72904;SDS011;61048;52.162;4.516;2023-11-21T14:15:38;6.70;;;3.42;;
72904;SDS011;61048;52.162;4.516;2023-11-21T14:18:10;6.53;;;3.38;;
72904;SDS011;61048;52.162;4.516;2023-11-21T14:20:39;5.47;;;2.85;;
72904;SDS011;61048;52.162;4.516;2023-11-21T14:23:08;5.80;;;3.10;;
72904;SDS011;61048;52.162;4.516;2023-11-21T14:25:36;6.50;;;3.65;;
72904;SDS011;61048;52.162;4.516;2023-11-21T14:28:04;6.63;;;3.63;;
72904;SDS011;61048;52.162;4.516;2023-11-21T14:30:31;5.35;;;2.90;;
72904;SDS011;61048;52.162;4.516;2023-11-21T14:33:01;4.30;;;2.67;;
72904;SDS011;61048;52.162;4.516;2023-11-21T14:35:28;6.05;;;3.35;;
72904;SDS011;61048;52.162;4.516;2023-11-21T14:37:57;5.15;;;2.47;;
72904;SDS011;61048;52.162;4.516;2023-11-21T14:40:26;6.65;;;3.08;;
72904;SDS011;61048;52.162;4.516;2023-11-21T14:42:58;4.88;;;2.85;;
72904;SDS011;61048;52.162;4.516;2023-11-21T14:45:25;5.35;;;2.92;;
72904;SDS011;61048;52.162;4.516;2023-11-21T14:47:54;5.13;;;2.63;;
72904;SDS011;61048;52.162;4.516;2023-11-21T14:50:30;6.45;;;2.90;;
72904;SDS011;61048;52.162;4.516;2023-11-21T14:53:34;5.53;;;2.65;;
72904;SDS011;61048;52.162;4.516;2023-11-21T14:56:10;4.50;;;2.42;;
72904;SDS011;61048;52.162;4.516;2023-11-21T14:58:46;6.72;;;2.45;;